Time;durP1;ratioP1;P1;durP2;ratioP2;P2;SDS_P1;SDS_P2;PMS_P1;PMS_P2;Temp;Humidity;BMP_temperature;BMP_pressure;BME280_temperature;BME280_humidity;BME280_pressure;Samples;Min_cycle;Max_cycle;Signal;HPM_P1;HPM_P2
2021/10/27 00:00:07;;;;;;;19.63;8.32;;;;;;;;;;5094092;28;20024;-71
2021/10/27 00:02:33;;;;;;;17.75;8.85;;;;;;;;;;5093820;28;20047;-71
2021/10/27 00:04:59;;;;;;;23.23;9.68;;;;;;;;;;5093558;28;20024;-71
2021/10/27 00:07:26;;;;;;;24.95;12.13;;;;;;;;;;5093917;28;20043;-71
2021/10/27 00:09:52;;;;;;;28.17;13.85;;;;;;;;;;5093772;28;20020;-71
2021/10/27 00:12:19;;;;;;;32.42;14.43;;;;;;;;;;5093215;28;20354;-71
2021/10/27 00:14:45;;;;;;;30.00;12.35;;;;;;;;;;5093643;28;20031;-71
2021/10/27 00:17:11;;;;;;;31.20;12.50;;;;;;;;;;5093766;28;20031;-70
2021/10/27 00:19:37;;;;;;;19.73;9.57;;;;;;;;;;5093408;28;20400;-71
2021/10/27 00:22:04;;;;;;;15.98;8.57;;;;;;;;;;5093617;28;20077;-70
2021/10/27 00:24:30;;;;;;;14.23;7.65;;;;;;;;;;5093863;28;20105;-70
2021/10/27 00:26:56;;;;;;;11.93;6.85;;;;;;;;;;5093209;28;20030;-71
2021/10/27 00:29:22;;;;;;;13.68;6.15;;;;;;;;;;5093639;28;20024;-70
2021/10/27 00:31:48;;;;;;;11.70;5.75;;;;;;;;;;5093074;28;20017;-70
2021/10/27 00:34:15;;;;;;;16.27;6.85;;;;;;;;;;5093516;28;20073;-69
2021/10/27 00:36:41;;;;;;;14.30;6.85;;;;;;;;;;5093469;28;20358;-69
2021/10/27 00:39:07;;;;;;;16.58;6.45;;;;;;;;;;5093069;28;20047;-69
2021/10/27 00:41:33;;;;;;;22.80;8.98;;;;;;;;;;5093370;28;20521;-70
2021/10/27 00:43:59;;;;;;;25.63;10.77;;;;;;;;;;5093187;28;20036;-70
2021/10/27 00:46:26;;;;;;;22.02;9.48;;;;;;;;;;5093100;28;20020;-70
2021/10/27 00:48:52;;;;;;;16.05;8.07;;;;;;;;;;5093247;28;20535;-71
2021/10/27 00:51:19;;;;;;;13.88;6.47;;;;;;;;;;5093338;28;20380;-70
2021/10/27 00:53:47;;;;;;;12.75;6.43;;;;;;;;;;5092841;28;20472;-71
2021/10/27 00:56:13;;;;;;;15.95;6.88;;;;;;;;;;5093200;28;20046;-70
2021/10/27 00:58:40;;;;;;;10.50;4.47;;;;;;;;;;5093167;28;20016;-70
2021/10/27 01:01:07;;;;;;;14.85;7.65;;;;;;;;;;5092700;28;20027;-70
2021/10/27 01:03:35;;;;;;;17.38;7.32;;;;;;;;;;5092940;28;20085;-70
2021/10/27 01:06:02;;;;;;;16.08;6.35;;;;;;;;;;5093094;28;20023;-70
2021/10/27 01:08:29;;;;;;;14.75;6.15;;;;;;;;;;5092889;28;20426;-71
2021/10/27 01:10:55;;;;;;;16.23;7.43;;;;;;;;;;5091642;28;20016;-70
2021/10/27 01:13:21;;;;;;;15.27;8.30;;;;;;;;;;5093014;28;20488;-70
2021/10/27 01:15:47;;;;;;;13.60;7.90;;;;;;;;;;5092623;28;20358;-70
2021/10/27 01:18:14;;;;;;;15.70;7.38;;;;;;;;;;5092915;28;20035;-70
2021/10/27 01:20:40;;;;;;;16.88;8.40;;;;;;;;;;5092903;28;20020;-70
2021/10/27 01:23:06;;;;;;;21.20;11.40;;;;;;;;;;5092449;28;20381;-70
2021/10/27 01:25:32;;;;;;;21.48;11.35;;;;;;;;;;5096481;28;20030;-70
2021/10/27 01:28:01;;;;;;;18.35;9.05;;;;;;;;;;5096565;28;20020;-69
2021/10/27 01:30:28;;;;;;;15.27;8.45;;;;;;;;;;5097271;28;20024;-69
2021/10/27 01:32:54;;;;;;;20.52;7.55;;;;;;;;;;5096845;28;20031;-69
2021/10/27 01:35:20;;;;;;;19.05;7.78;;;;;;;;;;5078302;28;20035;-68
2021/10/27 01:37:47;;;;;;;12.75;5.97;;;;;;;;;;5097150;28;20020;-69
2021/10/27 01:40:15;;;;;;;11.23;4.78;;;;;;;;;;5096685;28;20028;-69
2021/10/27 01:42:42;;;;;;;8.23;3.92;;;;;;;;;;5096267;28;20089;-70
2021/10/27 01:45:08;;;;;;;8.48;4.10;;;;;;;;;;5096658;28;20100;-69
2021/10/27 01:47:35;;;;;;;8.73;3.58;;;;;;;;;;5096615;28;20161;-70
2021/10/27 01:50:02;;;;;;;7.43;3.78;;;;;;;;;;5096287;28;20021;-70
2021/10/27 01:52:28;;;;;;;10.07;4.55;;;;;;;;;;5096550;28;20380;-69
2021/10/27 01:54:54;;;;;;;9.77;4.38;;;;;;;;;;5096671;28;20057;-70
2021/10/27 01:57:20;;;;;;;9.82;4.38;;;;;;;;;;5096035;28;20463;-70
2021/10/27 01:59:46;;;;;;;13.93;6.68;;;;;;;;;;5096326;28;20028;-70
2021/10/27 02:02:12;;;;;;;9.60;4.40;;;;;;;;;;5095936;28;20024;-70
2021/10/27 02:04:39;;;;;;;8.63;4.32;;;;;;;;;;5096042;28;20028;-70
2021/10/27 02:07:05;;;;;;;8.25;4.07;;;;;;;;;;5096109;28;20047;-69
2021/10/27 02:09:31;;;;;;;7.72;3.80;;;;;;;;;;5096737;28;20036;-70
2021/10/27 02:11:58;;;;;;;7.20;3.15;;;;;;;;;;5095708;28;20028;-70
2021/10/27 02:14:24;;;;;;;7.72;3.97;;;;;;;;;;5096278;28;20415;-70
2021/10/27 02:16:50;;;;;;;10.13;4.50;;;;;;;;;;5094819;28;20024;-70
2021/10/27 02:19:17;;;;;;;10.57;5.38;;;;;;;;;;5095534;28;20017;-70
2021/10/27 02:21:43;;;;;;;11.98;4.90;;;;;;;;;;5094901;28;20074;-70
2021/10/27 02:24:10;;;;;;;10.20;4.65;;;;;;;;;;5095952;28;20368;-70
2021/10/27 02:26:36;;;;;;;15.02;5.57;;;;;;;;;;5096053;28;20020;-70
2021/10/27 02:29:02;;;;;;;10.60;5.28;;;;;;;;;;5096199;28;20027;-70
2021/10/27 02:31:29;;;;;;;11.68;5.20;;;;;;;;;;5095552;28;20527;-69
2021/10/27 02:33:55;;;;;;;42.28;37.72;;;;;;;;;;5095693;28;20468;-70
2021/10/27 02:36:21;;;;;;;621.03;563.10;;;;;;;;;;5095140;28;20099;-69
2021/10/27 02:38:48;;;;;;;208.32;189.35;;;;;;;;;;5095506;28;20345;-69
2021/10/27 02:41:15;;;;;;;11.15;5.88;;;;;;;;;;5095693;28;20020;-69
2021/10/27 02:43:41;;;;;;;10.18;4.95;;;;;;;;;;5095487;28;20032;-70
2021/10/27 02:46:07;;;;;;;11.98;5.55;;;;;;;;;;5095087;28;20027;-70
2021/10/27 02:48:34;;;;;;;14.98;6.78;;;;;;;;;;5095426;28;20103;-70
2021/10/27 02:51:00;;;;;;;13.50;7.10;;;;;;;;;;5095349;28;20143;-70
2021/10/27 02:53:26;;;;;;;12.27;6.38;;;;;;;;;;5095043;28;20028;-70
2021/10/27 02:55:52;;;;;;;12.13;5.82;;;;;;;;;;5095345;28;20026;-70
2021/10/27 02:58:18;;;;;;;11.05;5.22;;;;;;;;;;5095305;28;20016;-70
2021/10/27 03:00:44;;;;;;;11.55;5.72;;;;;;;;;;5095034;28;20472;-70
2021/10/27 03:03:11;;;;;;;13.75;7.00;;;;;;;;;;5094883;28;20094;-69
2021/10/27 03:05:37;;;;;;;14.48;7.00;;;;;;;;;;5095112;28;20020;-70
2021/10/27 03:08:03;;;;;;;17.08;8.05;;;;;;;;;;5094674;28;20545;-70
2021/10/27 03:10:29;;;;;;;16.65;8.38;;;;;;;;;;5095035;28;20028;-70
2021/10/27 03:12:55;;;;;;;13.93;8.13;;;;;;;;;;5094980;28;20020;-69
2021/10/27 03:15:21;;;;;;;16.52;9.07;;;;;;;;;;5094472;28;20103;-70
2021/10/27 03:17:48;;;;;;;15.63;9.05;;;;;;;;;;5093629;28;20447;-70
2021/10/27 03:20:14;;;;;;;10.35;6.18;;;;;;;;;;5094887;28;20487;-70
2021/10/27 03:22:41;;;;;;;11.85;5.70;;;;;;;;;;5094388;28;20062;-70
2021/10/27 03:25:07;;;;;;;9.82;5.22;;;;;;;;;;5094753;28;20065;-69
2021/10/27 03:27:33;;;;;;;10.05;4.30;;;;;;;;;;5094316;28;20028;-70
2021/10/27 03:29:59;;;;;;;7.70;4.50;;;;;;;;;;5094686;28;20024;-70
2021/10/27 03:32:27;;;;;;;14.32;6.43;;;;;;;;;;5094572;28;20376;-69
2021/10/27 03:34:53;;;;;;;12.13;6.13;;;;;;;;;;5094143;28;20035;-70
2021/10/27 03:37:19;;;;;;;10.30;5.50;;;;;;;;;;5094521;28;20043;-71
2021/10/27 03:39:46;;;;;;;9.35;4.95;;;;;;;;;;5094445;28;20032;-69
2021/10/27 03:42:12;;;;;;;9.73;5.32;;;;;;;;;;5093959;28;20499;-70
2021/10/27 03:44:38;;;;;;;10.38;4.88;;;;;;;;;;5094374;28;20032;-70
2021/10/27 03:47:04;;;;;;;9.48;4.85;;;;;;;;;;5093508;28;20107;-70
2021/10/27 03:49:31;;;;;;;10.70;4.93;;;;;;;;;;5092604;28;20020;-71
2021/10/27 03:51:58;;;;;;;9.32;5.70;;;;;;;;;;5094258;28;20028;-70
2021/10/27 03:54:24;;;;;;;30.83;16.85;;;;;;;;;;5094134;28;20016;-70
2021/10/27 03:56:50;;;;;;;22.80;13.43;;;;;;;;;;5093812;28;20028;-71
2021/10/27 03:59:16;;;;;;;21.15;13.10;;;;;;;;;;5094162;28;20043;-71
2021/10/27 04:01:42;;;;;;;24.60;12.30;;;;;;;;;;5094227;28;20180;-71
2021/10/27 04:04:09;;;;;;;29.23;14.35;;;;;;;;;;5092196;28;20079;-70
2021/10/27 04:06:35;;;;;;;30.60;16.42;;;;;;;;;;5093994;28;20051;-70
2021/10/27 04:09:01;;;;;;;31.33;16.10;;;;;;;;;;5094013;28;20016;-71
2021/10/27 04:11:27;;;;;;;18.48;9.75;;;;;;;;;;5093691;28;20377;-70
2021/10/27 04:13:54;;;;;;;14.88;8.15;;;;;;;;;;5094547;28;20058;-71
2021/10/27 04:16:20;;;;;;;12.88;7.25;;;;;;;;;;5094116;28;20035;-70
2021/10/27 04:18:46;;;;;;;16.20;8.82;;;;;;;;;;5093538;28;20024;-70
2021/10/27 04:21:12;;;;;;;16.38;9.00;;;;;;;;;;5094036;28;20027;-70
2021/10/27 04:23:38;;;;;;;17.85;10.88;;;;;;;;;;5094001;28;20434;-70
2021/10/27 04:26:04;;;;;;;29.63;16.42;;;;;;;;;;5093351;28;20024;-70
2021/10/27 04:28:31;;;;;;;33.35;18.00;;;;;;;;;;5093981;28;20031;-70
2021/10/27 04:30:58;;;;;;;38.00;20.58;;;;;;;;;;5093228;28;20016;-70
2021/10/27 04:33:24;;;;;;;36.28;20.02;;;;;;;;;;5093688;28;20032;-71
2021/10/27 04:35:52;;;;;;;37.38;19.55;;;;;;;;;;5092251;28;20027;-70
2021/10/27 04:38:20;;;;;;;40.17;21.70;;;;;;;;;;5093058;28;20020;-70
2021/10/27 04:40:46;;;;;;;32.33;17.83;;;;;;;;;;5093302;28;20486;-70
2021/10/27 04:43:13;;;;;;;36.53;17.55;;;;;;;;;;5093323;28;20325;-70
2021/10/27 04:45:39;;;;;;;26.90;14.88;;;;;;;;;;5091596;28;20444;-70
2021/10/27 04:48:07;;;;;;;27.42;14.80;;;;;;;;;;5093361;28;20070;-71
2021/10/27 04:50:33;;;;;;;26.65;13.38;;;;;;;;;;5093488;28;20072;-68
2021/10/27 04:52:59;;;;;;;27.13;15.77;;;;;;;;;;5093238;28;20024;-69
2021/10/27 04:55:26;;;;;;;28.95;16.05;;;;;;;;;;5093210;28;20024;-68
2021/10/27 04:57:52;;;;;;;49.75;26.65;;;;;;;;;;5091773;28;20016;-70
2021/10/27 05:00:18;;;;;;;54.40;32.63;;;;;;;;;;5092742;28;20031;-68
2021/10/27 05:02:44;;;;;;;41.35;23.42;;;;;;;;;;5092976;28;20083;-69
2021/10/27 05:05:11;;;;;;;31.92;19.90;;;;;;;;;;5093075;28;20020;-68
2021/10/27 05:07:37;;;;;;;27.63;17.75;;;;;;;;;;5092741;28;20024;-69
2021/10/27 05:10:04;;;;;;;20.40;12.70;;;;;;;;;;5093134;28;20070;-69
2021/10/27 05:12:31;;;;;;;23.25;14.55;;;;;;;;;;5089048;28;20019;-69
2021/10/27 05:14:57;;;;;;;24.30;15.77;;;;;;;;;;5083497;28;20035;-71
2021/10/27 05:17:23;;;;;;;17.10;9.70;;;;;;;;;;5106122;28;20024;-72
2021/10/27 05:19:49;;;;;;;27.58;15.07;;;;;;;;;;5089440;28;20028;-72
2021/10/27 05:22:16;;;;;;;42.25;19.95;;;;;;;;;;5088587;28;20020;-73
2021/10/27 05:24:43;;;;;;;40.75;19.88;;;;;;;;;;5113325;28;20032;-73
2021/10/27 05:27:10;;;;;;;38.45;19.70;;;;;;;;;;5090693;28;20024;-73
2021/10/27 05:29:39;;;;;;;43.30;21.25;;;;;;;;;;5088479;28;20027;-73
2021/10/27 05:32:06;;;;;;;37.33;18.13;;;;;;;;;;5090758;28;20020;-71
2021/10/27 05:34:33;;;;;;;40.90;21.88;;;;;;;;;;5091796;28;20500;-72
2021/10/27 05:36:59;;;;;;;43.95;22.25;;;;;;;;;;5090792;28;20150;-71
2021/10/27 05:39:25;;;;;;;33.25;17.23;;;;;;;;;;5091744;28;20016;-71
2021/10/27 05:41:53;;;;;;;35.80;17.65;;;;;;;;;;5088879;28;20419;-72
2021/10/27 05:44:19;;;;;;;32.45;18.55;;;;;;;;;;5089795;28;20529;-74
2021/10/27 05:46:48;;;;;;;34.30;17.23;;;;;;;;;;5091216;28;20036;-72
2021/10/27 05:51:51;;;;;;;34.90;21.07;;;;;;;;;;5092096;28;20057;-75
2021/10/27 05:57:03;;;;;;;33.55;18.17;;;;;;;;;;5089471;28;20043;-74
2021/10/27 05:59:29;;;;;;;34.15;18.45;;;;;;;;;;5089576;28;20368;-72
2021/10/27 06:01:55;;;;;;;28.95;17.45;;;;;;;;;;5086970;28;20057;-74
2021/10/27 06:04:21;;;;;;;37.72;22.00;;;;;;;;;;5087641;28;20036;-75
2021/10/27 06:06:47;;;;;;;42.95;23.52;;;;;;;;;;5090138;28;20031;-72
2021/10/27 06:09:15;;;;;;;36.95;21.85;;;;;;;;;;5089351;28;20028;-69
2021/10/27 06:11:43;;;;;;;45.90;26.02;;;;;;;;;;5094427;28;20020;-71
2021/10/27 06:14:09;;;;;;;41.10;26.23;;;;;;;;;;5094991;28;20020;-70
2021/10/27 06:16:36;;;;;;;400.67;323.70;;;;;;;;;;5089463;28;20036;-70
2021/10/27 06:19:02;;;;;;;725.40;546.88;;;;;;;;;;5088051;28;20012;-72
2021/10/27 06:21:28;;;;;;;607.95;495.52;;;;;;;;;;5091701;28;20471;-72
2021/10/27 06:23:55;;;;;;;35.17;17.40;;;;;;;;;;5106738;28;20031;-70
2021/10/27 06:26:22;;;;;;;157.70;141.25;;;;;;;;;;5097012;28;20020;-74
2021/10/27 06:31:36;;;;;;;655.92;453.88;;;;;;;;;;5093048;28;20032;-72
2021/10/27 06:46:58;;;;;;;822.78;559.45;;;;;;;;;;5093924;28;20048;-69
2021/10/27 06:49:24;;;;;;;835.35;548.17;;;;;;;;;;5093833;28;20028;-68
2021/10/27 06:51:51;;;;;;;801.72;541.92;;;;;;;;;;5093395;28;20027;-70
2021/10/27 06:54:17;;;;;;;732.78;531.75;;;;;;;;;;5091952;28;20020;-71
2021/10/27 06:56:43;;;;;;;48.90;25.63;;;;;;;;;;5092352;28;20101;-71
2021/10/27 07:04:31;;;;;;;50.28;24.73;;;;;;;;;;5093290;28;20079;-72
2021/10/27 07:15:44;;;;;;;28.27;14.73;;;;;;;;;;5080907;28;20511;-70
2021/10/27 07:18:10;;;;;;;22.33;13.35;;;;;;;;;;5091019;28;20028;-68
2021/10/27 07:20:36;;;;;;;89.05;41.83;;;;;;;;;;5090006;28;20027;-71
2021/10/27 07:23:03;;;;;;;62.65;34.95;;;;;;;;;;5090439;28;20024;-70
2021/10/27 07:25:36;;;;;;;30.30;16.58;;;;;;;;;;5092051;28;20456;-70
2021/10/27 07:28:02;;;;;;;36.17;20.13;;;;;;;;;;5092009;28;20044;-71
2021/10/27 07:30:28;;;;;;;29.08;15.02;;;;;;;;;;5093648;28;20484;-70
2021/10/27 07:32:57;;;;;;;22.70;13.55;;;;;;;;;;5093044;28;20101;-68
2021/10/27 07:35:35;;;;;;;31.02;17.90;;;;;;;;;;5091268;28;20027;-67
2021/10/27 07:40:47;;;;;;;13.85;7.97;;;;;;;;;;5092128;28;20426;-69
2021/10/27 07:43:20;;;;;;;15.90;9.23;;;;;;;;;;5092276;28;20028;-70
2021/10/27 07:45:47;;;;;;;17.45;9.15;;;;;;;;;;5090252;28;20058;-69
2021/10/27 07:48:14;;;;;;;12.70;6.50;;;;;;;;;;5091782;28;20857;-69
2021/10/27 07:50:41;;;;;;;13.43;7.85;;;;;;;;;;5092029;28;20101;-69
2021/10/27 07:53:09;;;;;;;15.88;9.27;;;;;;;;;;5082181;28;21684;-69
2021/10/27 07:55:37;;;;;;;19.10;9.52;;;;;;;;;;5087936;28;20055;-69
2021/10/27 07:58:04;;;;;;;22.23;15.00;;;;;;;;;;5088853;28;20778;-69
2021/10/27 08:00:31;;;;;;;24.90;14.38;;;;;;;;;;5108916;28;20532;-70
2021/10/27 08:03:03;;;;;;;19.25;10.27;;;;;;;;;;5092235;28;20044;-69
2021/10/27 08:05:31;;;;;;;17.38;11.40;;;;;;;;;;5092757;28;20028;-73
2021/10/27 08:07:57;;;;;;;15.43;8.57;;;;;;;;;;5092073;28;20110;-73
2021/10/27 08:10:24;;;;;;;58.70;30.00;;;;;;;;;;5089348;28;20026;-73
2021/10/27 08:12:51;;;;;;;23.50;12.82;;;;;;;;;;5092696;28;20012;-73
2021/10/27 08:15:20;;;;;;;24.60;15.52;;;;;;;;;;5090916;28;20502;-74
2021/10/27 08:17:47;;;;;;;25.65;17.00;;;;;;;;;;5092039;28;20044;-73
2021/10/27 08:20:14;;;;;;;21.67;12.95;;;;;;;;;;5091223;28;20024;-73
2021/10/27 08:22:43;;;;;;;20.98;12.20;;;;;;;;;;5090616;28;20391;-73
2021/10/27 08:25:18;;;;;;;18.65;11.10;;;;;;;;;;5089663;28;20023;-73
2021/10/27 08:27:44;;;;;;;27.13;15.82;;;;;;;;;;5089870;28;20016;-73
2021/10/27 08:30:12;;;;;;;26.30;15.57;;;;;;;;;;5089965;28;20024;-75
2021/10/27 08:32:47;;;;;;;19.13;10.50;;;;;;;;;;5089656;28;20021;-73
2021/10/27 08:36:34;;;;;;;18.75;9.88;;;;;;;;;;5108542;27;20314;-74
2021/10/27 08:39:03;;;;;;;28.65;15.23;;;;;;;;;;5102923;28;20028;-69
2021/10/27 08:41:38;;;;;;;15.65;8.93;;;;;;;;;;5110391;27;20396;-70
2021/10/27 08:46:46;;;;;;;16.60;9.60;;;;;;;;;;4848104;27;5750957;-69
2021/10/27 08:49:15;;;;;;;27.70;14.77;;;;;;;;;;5029686;28;20034;-70
2021/10/27 08:52:45;;;;;;;23.50;14.02;;;;;;;;;;5066018;28;20477;-74
2021/10/27 08:57:17;;;;;;;30.40;15.10;;;;;;;;;;5110033;27;20435;-73
2021/10/27 09:16:20;;;;;;;35.17;15.10;;;;;;;;;;5105245;28;20028;-75
2021/10/27 10:07:16;;;;;;;8.50;4.47;;;;;;;;;;5110762;27;20442;-75
2021/10/27 10:09:43;;;;;;;7.50;4.00;;;;;;;;;;5109783;28;20032;-75
2021/10/27 10:12:11;;;;;;;8.82;4.75;;;;;;;;;;5109786;28;20031;-77
2021/10/27 10:16:20;;;;;;;13.07;4.90;;;;;;;;;;5109650;27;20452;-75
2021/10/27 10:19:12;;;;;;;10.07;5.05;;;;;;;;;;5109224;27;20397;-78
2021/10/27 10:21:42;;;;;;;9.55;6.00;;;;;;;;;;5109356;28;20036;-78
2021/10/27 10:24:15;;;;;;;13.90;7.07;;;;;;;;;;5108425;28;20098;-75
2021/10/27 10:26:42;;;;;;;9.80;5.40;;;;;;;;;;5110886;28;20031;-73
2021/10/27 10:29:08;;;;;;;10.23;6.30;;;;;;;;;;5110278;28;20019;-73
2021/10/27 10:31:39;;;;;;;11.35;6.13;;;;;;;;;;5110154;28;20506;-77
2021/10/27 10:34:09;;;;;;;8.70;5.18;;;;;;;;;;5110547;28;20019;-76
2021/10/27 10:38:40;;;;;;;8.18;4.25;;;;;;;;;;5085062;27;20402;-75
2021/10/27 10:41:31;;;;;;;9.23;5.18;;;;;;;;;;5073066;28;20036;-74
2021/10/27 11:11:39;;;;;;;11.07;6.47;;;;;;;;;;5109228;27;20470;-76
2021/10/27 11:25:18;;;;;;;620.03;555.60;;;;;;;;;;5066016;28;20028;-75
2021/10/27 11:39:41;;;;;;;19.35;8.52;;;;;;;;;;5086420;28;20047;-71
2021/10/27 11:42:38;;;;;;;9.95;5.90;;;;;;;;;;5087599;28;20025;-75
2021/10/27 11:47:10;;;;;;;9.20;4.90;;;;;;;;;;5109292;27;20389;-70
2021/10/27 11:49:42;;;;;;;8.70;4.55;;;;;;;;;;5108962;28;20085;-72
2021/10/27 11:52:09;;;;;;;8.30;4.72;;;;;;;;;;5109870;28;20027;-72
2021/10/27 11:54:40;;;;;;;10.68;4.75;;;;;;;;;;5108664;28;20024;-73
2021/10/27 11:57:10;;;;;;;7.72;4.43;;;;;;;;;;5110428;28;20020;-71
2021/10/27 11:59:48;;;;;;;10.63;5.47;;;;;;;;;;5110490;28;20028;-74
2021/10/27 12:02:15;;;;;;;11.00;5.07;;;;;;;;;;5109137;28;20498;-73
2021/10/27 12:04:42;;;;;;;15.55;8.35;;;;;;;;;;5109655;28;20027;-74
2021/10/27 12:10:02;;;;;;;11.88;4.75;;;;;;;;;;5109799;28;20028;-76
2021/10/27 12:20:43;;;;;;;7.07;3.30;;;;;;;;;;5094434;28;20038;-75
2021/10/27 12:23:16;;;;;;;9.20;4.60;;;;;;;;;;5109333;28;20036;-74
2021/10/27 12:25:43;;;;;;;7.53;3.97;;;;;;;;;;5106875;28;20353;-73
2021/10/27 12:30:10;;;;;;;9.65;4.90;;;;;;;;;;5109687;27;20401;-73
2021/10/27 12:32:52;;;;;;;12.63;7.68;;;;;;;;;;5110367;28;20518;-74
2021/10/27 12:35:19;;;;;;;12.30;6.40;;;;;;;;;;5110209;28;20077;-75
2021/10/27 12:37:51;;;;;;;14.38;8.65;;;;;;;;;;5109215;28;20046;-75
2021/10/27 12:40:35;;;;;;;10.18;5.40;;;;;;;;;;5110229;28;20024;-76
2021/10/27 12:43:01;;;;;;;11.02;5.97;;;;;;;;;;5109991;28;20476;-74
2021/10/27 12:45:39;;;;;;;13.43;7.82;;;;;;;;;;5109517;28;20020;-74
2021/10/27 12:48:10;;;;;;;13.93;8.60;;;;;;;;;;5109765;28;20124;-74
2021/10/27 12:50:39;;;;;;;21.05;14.98;;;;;;;;;;5109130;28;20041;-73
2021/10/27 12:53:08;;;;;;;10.52;5.22;;;;;;;;;;5110083;28;20016;-73
2021/10/27 12:55:38;;;;;;;11.25;5.32;;;;;;;;;;5109823;28;20020;-74
2021/10/27 12:58:10;;;;;;;12.80;5.32;;;;;;;;;;5109262;28;20020;-73
2021/10/27 13:00:55;;;;;;;8.45;5.07;;;;;;;;;;5100480;28;20036;-74
2021/10/27 13:06:28;;;;;;;13.52;7.63;;;;;;;;;;5098256;28;20036;-74
2021/10/27 13:11:38;;;;;;;10.85;5.93;;;;;;;;;;5108979;28;20023;-73
2021/10/27 13:20:10;;;;;;;8.77;4.90;;;;;;;;;;5110103;28;20020;-73
2021/10/27 13:22:43;;;;;;;10.32;4.78;;;;;;;;;;5108951;28;20019;-72
2021/10/27 13:31:24;;;;;;;15.95;6.88;;;;;;;;;;5110612;28;20117;-74
2021/10/27 13:33:50;;;;;;;9.93;4.68;;;;;;;;;;5110397;28;20016;-75
2021/10/27 13:36:17;;;;;;;9.40;5.10;;;;;;;;;;5110545;28;20130;-75
2021/10/27 13:38:45;;;;;;;15.15;9.48;;;;;;;;;;5111203;28;20047;-75
2021/10/27 13:41:11;;;;;;;11.93;7.13;;;;;;;;;;5110268;28;20024;-75
2021/10/27 13:43:44;;;;;;;14.52;7.07;;;;;;;;;;5110318;28;20516;-75
2021/10/27 14:07:41;;;;;;;15.27;9.07;;;;;;;;;;5086518;28;20020;-73
2021/10/27 14:10:12;;;;;;;15.63;9.35;;;;;;;;;;5110368;28;20050;-72
2021/10/27 14:12:50;;;;;;;23.77;12.98;;;;;;;;;;5108711;28;20016;-73
2021/10/27 14:15:32;;;;;;;20.70;12.73;;;;;;;;;;5108850;28;20681;-74
2021/10/27 14:18:17;;;;;;;17.75;12.50;;;;;;;;;;5113980;28;20483;-73
2021/10/27 14:40:47;;;;;;;24.50;15.82;;;;;;;;;;5113644;28;20432;-72
2021/10/27 14:59:17;;;;;;;39.55;20.20;;;;;;;;;;5110583;28;20036;-74
2021/10/27 15:41:44;;;;;;;29.50;21.67;;;;;;;;;;5067643;28;20151;-73
2021/10/27 15:50:31;;;;;;;37.53;26.45;;;;;;;;;;5109752;27;20401;-74
2021/10/27 15:51:41;;;;;;;41.80;29.00;;;;;;;;;;5110248;27;20442;-74
2021/10/27 15:54:08;;;;;;;44.58;31.10;;;;;;;;;;5109075;28;20027;-73
2021/10/27 15:56:34;;;;;;;48.50;26.25;;;;;;;;;;5110779;28;20095;-73
2021/10/27 15:59:00;;;;;;;40.53;25.02;;;;;;;;;;5110770;28;20028;-73
2021/10/27 16:02:34;;;;;;;35.72;25.70;;;;;;;;;;5070251;28;20461;-73
2021/10/27 16:05:01;;;;;;;32.92;23.85;;;;;;;;;;5070438;28;20027;-72
2021/10/27 16:08:39;;;;;;;34.30;22.25;;;;;;;;;;5110820;27;20400;-73
2021/10/27 16:12:28;;;;;;;62.95;41.45;;;;;;;;;;5110808;27;20397;-73
2021/10/27 16:17:03;;;;;;;59.30;41.42;;;;;;;;;;5110628;27;20765;-73
2021/10/27 16:19:30;;;;;;;54.00;34.20;;;;;;;;;;5110561;28;20031;-73
2021/10/27 16:21:56;;;;;;;47.05;30.40;;;;;;;;;;5110386;28;20044;-72
2021/10/27 16:24:25;;;;;;;53.88;37.55;;;;;;;;;;5110773;28;20114;-73
2021/10/27 16:26:52;;;;;;;57.75;39.88;;;;;;;;;;5109274;28;20030;-72
2021/10/27 16:34:47;;;;;;;77.40;50.22;;;;;;;;;;5111245;27;20562;-73
2021/10/27 16:38:56;;;;;;;76.45;48.88;;;;;;;;;;5111204;27;20434;-73
2021/10/27 16:41:22;;;;;;;94.65;51.88;;;;;;;;;;5110917;28;20028;-74
2021/10/27 16:47:41;;;;;;;156.93;88.65;;;;;;;;;;5111080;27;20444;-73
2021/10/27 16:53:52;;;;;;;90.80;54.00;;;;;;;;;;5111458;27;20117;-73
2021/10/27 16:56:19;;;;;;;73.13;43.15;;;;;;;;;;5090580;28;20089;-74
2021/10/27 16:58:45;;;;;;;82.88;48.95;;;;;;;;;;5090125;28;20028;-73
2021/10/27 17:01:11;;;;;;;75.32;46.75;;;;;;;;;;5090405;28;20024;-73
2021/10/27 17:07:54;;;;;;;54.35;34.67;;;;;;;;;;5110940;27;20462;-73
2021/10/27 17:10:21;;;;;;;54.22;35.85;;;;;;;;;;5110970;28;20077;-73
2021/10/27 17:12:47;;;;;;;68.30;43.50;;;;;;;;;;5110535;28;20051;-73
2021/10/27 17:15:14;;;;;;;75.10;48.17;;;;;;;;;;5111574;28;20052;-72
2021/10/27 17:17:41;;;;;;;48.63;34.00;;;;;;;;;;5110536;28;20125;-73
2021/10/27 17:20:09;;;;;;;56.20;32.88;;;;;;;;;;5110775;28;20468;-74
2021/10/27 17:24:17;;;;;;;41.75;27.02;;;;;;;;;;5111881;27;20930;-73
2021/10/27 17:26:44;;;;;;;43.28;25.73;;;;;;;;;;5110681;28;20488;-73
2021/10/27 17:29:11;;;;;;;46.58;29.98;;;;;;;;;;5111002;28;20528;-73
2021/10/27 17:31:38;;;;;;;46.47;29.23;;;;;;;;;;5110451;28;20035;-73
2021/10/27 17:34:04;;;;;;;43.50;26.60;;;;;;;;;;5110913;28;20020;-73
2021/10/27 17:36:31;;;;;;;40.67;25.58;;;;;;;;;;5110908;28;20077;-73
2021/10/27 17:38:57;;;;;;;40.30;25.02;;;;;;;;;;5110541;28;20030;-74
2021/10/27 17:41:26;;;;;;;40.00;24.15;;;;;;;;;;5110689;28;20094;-73
2021/10/27 17:46:44;;;;;;;46.95;29.92;;;;;;;;;;5111111;27;20466;-73
2021/10/27 17:49:41;;;;;;;48.38;29.92;;;;;;;;;;5111402;28;20400;-73
2021/10/27 17:57:39;;;;;;;33.88;23.80;;;;;;;;;;5111071;28;20035;-73
2021/10/27 18:00:06;;;;;;;31.83;20.42;;;;;;;;;;5110479;28;20020;-73
2021/10/27 18:02:34;;;;;;;36.53;22.42;;;;;;;;;;5110645;28;20032;-73
2021/10/27 18:05:01;;;;;;;38.63;23.60;;;;;;;;;;5110595;28;20032;-73
2021/10/27 18:07:46;;;;;;;40.63;23.17;;;;;;;;;;5070136;28;20400;-74
2021/10/27 18:10:14;;;;;;;49.72;27.30;;;;;;;;;;5070299;28;20139;-73
2021/10/27 18:12:41;;;;;;;53.97;36.65;;;;;;;;;;5070327;28;20509;-73
2021/10/27 18:15:10;;;;;;;52.83;32.67;;;;;;;;;;5070038;28;20025;-73
2021/10/27 18:17:38;;;;;;;43.40;27.45;;;;;;;;;;5070290;28;20185;-73
2021/10/27 18:20:09;;;;;;;43.90;28.67;;;;;;;;;;5070232;28;20036;-74
2021/10/27 18:41:13;;;;;;;37.97;21.52;;;;;;;;;;5069893;28;20033;-72
2021/10/27 18:43:42;;;;;;;28.10;19.23;;;;;;;;;;5069737;28;20112;-73
2021/10/27 18:46:09;;;;;;;29.38;20.50;;;;;;;;;;5069707;28;20024;-74
2021/10/27 18:48:36;;;;;;;30.77;19.48;;;;;;;;;;5069535;28;20056;-75
2021/10/27 18:51:08;;;;;;;29.08;18.88;;;;;;;;;;5069099;28;20479;-74
2021/10/27 18:58:44;;;;;;;37.03;22.02;;;;;;;;;;5069337;28;20100;-72
2021/10/27 19:12:21;;;;;;;31.73;20.95;;;;;;;;;;5068744;28;20075;-72
2021/10/27 19:17:21;;;;;;;34.17;21.05;;;;;;;;;;5065139;28;20025;-72
2021/10/27 19:19:48;;;;;;;36.70;21.83;;;;;;;;;;5055860;28;20021;-73
2021/10/27 19:22:15;;;;;;;33.95;21.77;;;;;;;;;;5055785;28;20041;-73
2021/10/27 19:24:54;;;;;;;32.78;19.60;;;;;;;;;;5055369;28;20043;-73
2021/10/27 19:27:26;;;;;;;39.28;23.40;;;;;;;;;;5055668;28;20037;-73
2021/10/27 19:30:40;;;;;;;33.70;19.05;;;;;;;;;;5055714;28;20017;-74
2021/10/27 20:19:05;;;;;;;38.38;22.63;;;;;;;;;;5031193;28;20055;-74
2021/10/27 20:29:39;;;;;;;30.70;18.33;;;;;;;;;;5053344;28;20025;-73
2021/10/27 20:48:48;;;;;;;32.28;18.63;;;;;;;;;;5053694;28;20516;-73
2021/10/27 20:51:26;;;;;;;38.15;21.33;;;;;;;;;;5053952;28;20064;-73
2021/10/27 20:53:53;;;;;;;37.17;22.60;;;;;;;;;;5054073;28;20488;-73
2021/10/27 20:56:21;;;;;;;40.05;20.60;;;;;;;;;;5053847;28;20446;-73
2021/10/27 20:59:17;;;;;;;38.53;23.67;;;;;;;;;;5053713;28;20029;-73
2021/10/27 21:02:11;;;;;;;30.83;19.42;;;;;;;;;;5054002;28;20049;-73
2021/10/27 21:12:51;;;;;;;30.02;18.95;;;;;;;;;;5053674;28;20110;-72
2021/10/27 21:15:17;;;;;;;37.53;22.90;;;;;;;;;;5053789;28;20036;-72
2021/10/27 21:17:44;;;;;;;32.85;19.05;;;;;;;;;;5051917;28;20092;-73
2021/10/27 21:20:10;;;;;;;30.80;18.80;;;;;;;;;;5053759;28;20103;-72
2021/10/27 21:22:37;;;;;;;32.30;18.42;;;;;;;;;;5035472;28;20029;-72
2021/10/27 21:25:04;;;;;;;30.20;17.35;;;;;;;;;;5053038;28;20119;-72
2021/10/27 21:30:37;;;;;;;33.25;18.67;;;;;;;;;;5053287;28;20025;-71
2021/10/27 21:44:13;;;;;;;23.45;14.90;;;;;;;;;;5048209;28;20044;-72
2021/10/27 21:46:39;;;;;;;28.13;16.63;;;;;;;;;;5052579;28;20503;-72
2021/10/27 21:49:05;;;;;;;31.00;18.48;;;;;;;;;;5053034;28;20029;-72
2021/10/27 21:51:31;;;;;;;26.70;15.63;;;;;;;;;;5053000;28;20021;-72
2021/10/27 21:53:58;;;;;;;27.30;15.63;;;;;;;;;;5052549;28;20028;-73
2021/10/27 21:56:25;;;;;;;26.02;15.70;;;;;;;;;;5052921;28;20021;-72
2021/10/27 21:58:52;;;;;;;23.63;15.18;;;;;;;;;;5053006;28;20053;-73
2021/10/27 22:01:19;;;;;;;25.02;13.25;;;;;;;;;;5052928;28;20017;-73
2021/10/27 22:03:46;;;;;;;20.00;11.32;;;;;;;;;;5035037;28;20093;-72
2021/10/27 22:06:12;;;;;;;17.75;10.80;;;;;;;;;;5052295;28;20041;-74
2021/10/27 22:08:38;;;;;;;22.65;11.60;;;;;;;;;;5052688;28;20027;-73
2021/10/27 22:11:07;;;;;;;17.45;11.23;;;;;;;;;;5034786;28;20021;-73
2021/10/27 22:13:34;;;;;;;19.48;12.57;;;;;;;;;;5052402;28;20033;-73